createdAt,value
2022-09-24T00:01:38.640Z,100979.53
2022-09-24T00:04:09.746Z,100981.31
2022-09-24T00:06:40.927Z,100989.09
2022-09-24T00:09:10.484Z,100987.34
2022-09-24T00:11:38.949Z,100988.25
2022-09-24T00:14:07.702Z,100981.31
2022-09-24T00:16:35.372Z,100983.09
2022-09-24T00:19:05.100Z,100980.50
2022-09-24T00:21:34.745Z,100981.38
2022-09-24T00:24:03.978Z,100978.75
2022-09-24T00:26:50.221Z,100980.53
2022-09-24T00:29:19.831Z,100971.88
2022-09-24T00:31:47.430Z,100966.69
2022-09-24T00:34:15.324Z,100968.44
2022-09-24T00:36:44.841Z,100965.84
2022-09-24T00:39:12.546Z,100966.69
2022-09-24T00:41:42.243Z,100966.72
2022-09-24T00:44:47.875Z,100959.81
2022-09-24T00:47:18.941Z,100958.09
2022-09-24T00:49:48.982Z,100961.56
2022-09-24T00:52:17.302Z,100952.03
2022-09-24T00:54:45.638Z,100958.06
2022-09-24T00:57:15.228Z,100957.22
2022-09-24T00:59:43.874Z,100955.47
2022-09-24T01:02:11.322Z,100952.03
2022-09-24T01:04:39.051Z,100952.03
2022-09-24T01:07:06.460Z,100948.56
2022-09-24T01:09:34.764Z,100947.75
2022-09-24T01:12:13.013Z,100939.06
2022-09-24T01:14:52.662Z,100942.50
2022-09-24T01:17:29.891Z,100941.69
2022-09-24T01:20:20.033Z,100940.84
2022-09-24T01:23:05.901Z,100935.59
2022-09-24T01:25:43.289Z,100939.97
2022-09-24T01:28:26.737Z,100929.59
2022-09-24T01:31:02.776Z,100935.63
2022-09-24T01:33:34.885Z,100933.06
2022-09-24T01:36:08.265Z,100928.59
2022-09-24T01:38:41.433Z,100919.13
2022-09-24T01:41:25.662Z,100920.06
2022-09-24T01:43:53.875Z,100922.63
2022-09-24T01:46:25.085Z,100917.47
2022-09-24T01:48:52.739Z,100914.88
2022-09-24T01:51:24.419Z,100913.16
2022-09-24T01:53:56.311Z,100911.41
2022-09-24T01:56:27.811Z,100908.84
2022-09-24T01:59:01.526Z,100895.00
2022-09-24T02:01:33.847Z,100897.59
2022-09-24T02:04:08.182Z,100898.44
2022-09-24T02:06:39.709Z,100895.84
2022-09-24T02:09:07.780Z,100898.44
2022-09-24T02:11:37.852Z,100900.19
2022-09-24T02:14:09.624Z,100899.31
2022-09-24T02:16:42.531Z,100894.09
2022-09-24T02:19:14.856Z,100902.75
2022-09-24T02:21:45.421Z,100898.41
2022-09-24T02:24:17.856Z,100888.88
2022-09-24T02:26:46.253Z,100883.69
2022-09-24T02:29:14.176Z,100891.53
2022-09-24T02:31:47.462Z,100890.69
2022-09-24T02:34:22.401Z,100888.06
2022-09-24T02:36:51.066Z,100878.50
2022-09-24T02:39:19.079Z,100885.50
2022-09-24T02:41:48.431Z,100894.94
2022-09-24T02:44:16.502Z,100884.50
2022-09-24T02:46:45.752Z,100886.28
2022-09-24T02:49:14.133Z,100889.72
2022-09-24T02:51:42.016Z,100883.66
2022-09-24T02:54:10.510Z,100894.97
2022-09-24T02:56:38.352Z,100888.03
2022-09-24T02:59:06.214Z,100889.81
2022-09-24T03:01:33.761Z,100880.31
2022-09-24T03:04:03.276Z,100878.47
2022-09-24T03:06:30.843Z,100885.41
2022-09-24T03:08:58.864Z,100878.47
2022-09-24T03:11:26.436Z,100876.75
2022-09-24T03:13:53.832Z,100887.19
2022-09-24T03:16:21.400Z,100882.03
2022-09-24T03:18:49.235Z,100883.72
2022-09-24T03:21:19.985Z,100879.44
2022-09-24T03:23:48.174Z,100882.06
2022-09-24T03:26:15.762Z,100875.91
2022-09-24T03:28:43.159Z,100873.38
2022-09-24T03:31:09.819Z,100873.38
2022-09-24T03:33:38.680Z,100873.34
2022-09-24T03:36:08.616Z,100878.56
2022-09-24T03:38:38.703Z,100868.19
2022-09-24T03:41:07.161Z,100867.38
2022-09-24T03:43:35.008Z,100873.44
2022-09-24T03:46:02.820Z,100866.50
2022-09-24T03:48:30.938Z,100869.97
2022-09-24T03:50:58.357Z,100858.69
2022-09-24T03:53:25.732Z,100855.28
2022-09-24T03:55:57.715Z,100858.72
2022-09-24T03:58:26.076Z,100861.38
2022-09-24T04:00:54.449Z,100854.44
2022-09-24T04:03:22.702Z,100858.72
2022-09-24T04:05:51.421Z,100858.72
2022-09-24T04:08:19.250Z,100850.03
2022-09-24T04:10:47.227Z,100852.66
2022-09-24T04:13:16.164Z,100848.34
2022-09-24T04:15:43.767Z,100846.66
2022-09-24T04:18:11.497Z,100846.63
2022-09-24T04:20:38.911Z,100846.63
2022-09-24T04:23:06.387Z,100837.16
2022-09-24T04:25:34.173Z,100844.91
2022-09-24T04:28:03.753Z,100853.56
2022-09-24T04:30:33.756Z,100847.47
2022-09-24T04:33:02.751Z,100844.97
2022-09-24T04:35:32.073Z,100845.69
2022-09-24T04:38:00.316Z,100849.13
2022-09-24T04:40:28.361Z,100850.94
2022-09-24T04:42:55.859Z,100850.94
2022-09-24T04:45:24.920Z,100853.56
2022-09-24T04:47:57.821Z,100850.88
2022-09-24T04:50:26.677Z,100851.75
2022-09-24T04:52:54.661Z,100857.00
2022-09-24T04:55:22.298Z,100861.38
2022-09-24T04:57:51.074Z,100857.09
2022-09-24T05:00:21.567Z,100857.91
2022-09-24T05:02:56.419Z,100859.63
2022-09-24T05:05:25.229Z,100857.00
2022-09-24T05:07:52.770Z,100849.22
2022-09-24T05:10:20.270Z,100847.50
2022-09-24T05:12:47.668Z,100850.13
2022-09-24T05:15:15.226Z,100848.38
2022-09-24T05:17:42.740Z,100848.38
2022-09-24T05:20:11.363Z,100847.53
2022-09-24T05:22:43.007Z,100849.19
2022-09-24T05:25:10.941Z,100857.00
2022-09-24T05:27:37.580Z,100855.22
2022-09-24T05:30:06.180Z,100850.88
2022-09-24T05:32:36.731Z,100857.94
2022-09-24T05:35:04.396Z,100847.53
2022-09-24T05:37:31.791Z,100856.13
2022-09-24T05:40:21.118Z,100847.50
2022-09-24T05:42:48.534Z,100847.44
2022-09-24T05:45:18.431Z,100843.97
2022-09-24T05:47:46.115Z,100847.44
2022-09-24T05:50:14.367Z,100845.72
2022-09-24T05:52:42.779Z,100847.53
2022-09-24T05:55:12.031Z,100843.00
2022-09-24T05:57:39.660Z,100842.19
2022-09-24T06:00:08.392Z,100856.06
2022-09-24T06:02:35.850Z,100852.63
2022-09-24T06:05:03.348Z,100862.94
2022-09-24T06:07:31.070Z,100862.00
2022-09-24T06:09:59.189Z,100861.16
2022-09-24T06:12:27.985Z,100860.19
2022-09-24T06:14:55.397Z,100860.25
2022-09-24T06:17:23.526Z,100853.41
2022-09-24T06:19:50.953Z,100866.38
2022-09-24T06:22:19.373Z,100863.72
2022-09-24T06:24:46.876Z,100873.31
2022-09-24T06:27:14.288Z,100873.25
2022-09-24T06:29:42.987Z,100869.75
2022-09-24T06:32:10.425Z,100872.31
2022-09-24T06:34:37.831Z,100864.53
2022-09-24T06:37:05.273Z,100861.03
2022-09-24T06:39:32.661Z,100854.88
2022-09-24T06:42:00.116Z,100854.91
2022-09-24T06:44:27.520Z,100857.41
2022-09-24T06:46:57.208Z,100850.56
2022-09-24T06:49:24.615Z,100852.31
2022-09-24T06:51:54.649Z,100850.41
2022-09-24T06:54:22.378Z,100844.34
2022-09-24T06:56:50.284Z,100847.88
2022-09-24T06:59:17.678Z,100850.38
2022-09-24T07:01:45.155Z,100855.50
2022-09-24T07:04:13.913Z,100867.66
2022-09-24T07:06:58.616Z,100864.25
2022-09-24T07:09:26.024Z,100869.31
2022-09-24T07:11:54.722Z,100869.53
2022-09-24T07:14:23.892Z,100866.06
2022-09-24T07:16:52.140Z,100874.69
2022-09-24T07:19:20.859Z,100879.00
2022-09-24T07:21:48.266Z,100887.56
2022-09-24T07:24:15.679Z,100884.97
2022-09-24T07:26:43.072Z,100891.81
2022-09-24T07:29:10.469Z,100886.59
2022-09-24T07:31:37.961Z,100886.63
2022-09-24T07:34:07.920Z,100888.41
2022-09-24T07:36:36.747Z,100883.00
2022-09-24T07:39:05.072Z,100884.81
2022-09-24T07:41:33.044Z,100883.00
2022-09-24T07:44:00.921Z,100884.72
2022-09-24T07:46:28.498Z,100880.31
2022-09-24T07:48:56.749Z,100884.59
2022-09-24T07:51:25.965Z,100881.13
2022-09-24T07:53:55.509Z,100884.63
2022-09-24T07:56:23.973Z,100881.31
2022-09-24T07:58:52.549Z,100885.63
2022-09-24T08:01:20.604Z,100894.16
2022-09-24T08:03:48.246Z,100891.47
2022-09-24T08:06:15.721Z,100892.47
2022-09-24T08:08:43.793Z,100894.09
2022-09-24T08:11:13.860Z,100891.34
2022-09-24T08:13:41.364Z,100893.94
2022-09-24T08:16:08.875Z,100893.25
2022-09-24T08:18:36.339Z,100892.63
2022-09-24T08:21:05.698Z,100896.59
2022-09-24T08:23:33.229Z,100893.13
2022-09-24T08:26:01.043Z,100891.31
2022-09-24T08:28:31.205Z,100888.31
2022-09-24T08:31:00.487Z,100890.09
2022-09-24T08:33:37.210Z,100893.47
2022-09-24T08:36:06.695Z,100893.72
2022-09-24T08:38:34.077Z,100898.03
2022-09-24T08:41:15.002Z,100889.13
2022-09-24T08:43:50.710Z,100893.81
2022-09-24T08:46:42.318Z,100887.44
2022-09-24T08:49:17.120Z,100883.94
2022-09-24T08:51:51.209Z,100892.41
2022-09-24T08:54:19.716Z,100890.97
2022-09-24T08:56:47.671Z,100898.50
2022-09-24T08:59:27.691Z,100886.03
2022-09-24T09:02:13.345Z,100890.31
2022-09-24T09:04:52.248Z,100893.97
2022-09-24T09:07:22.499Z,100890.06
2022-09-24T09:09:56.216Z,100891.66
2022-09-24T09:12:28.535Z,100892.56
2022-09-24T09:15:02.805Z,100888.13
2022-09-24T09:17:42.413Z,100891.50
2022-09-24T09:20:16.907Z,100889.31
2022-09-24T09:22:48.021Z,100884.22
2022-09-24T09:25:20.702Z,100890.88
2022-09-24T09:27:51.813Z,100889.09
2022-09-24T09:30:21.945Z,100891.72
2022-09-24T09:33:10.670Z,100882.41
2022-09-24T09:35:47.328Z,100880.22
2022-09-24T09:38:20.970Z,100881.38
2022-09-24T09:40:58.202Z,100888.16
2022-09-24T09:43:26.815Z,100887.53
2022-09-24T09:46:07.569Z,100884.41
2022-09-24T09:48:44.458Z,100885.94
2022-09-24T09:51:22.305Z,100887.19
2022-09-24T09:53:56.440Z,100885.50
2022-09-24T09:56:27.251Z,100880.41
2022-09-24T09:59:03.891Z,100883.13
2022-09-24T10:01:35.361Z,100875.81
2022-09-24T10:04:04.844Z,100885.44
2022-09-24T10:06:34.397Z,100879.53
2022-09-24T10:09:13.076Z,100876.34
2022-09-24T10:11:40.618Z,100874.50
2022-09-24T10:14:12.357Z,100878.19
2022-09-24T10:16:43.516Z,100877.16
2022-09-24T10:19:18.173Z,100873.88
2022-09-24T10:21:45.669Z,100870.09
2022-09-24T10:24:17.371Z,100878.91
2022-09-24T10:26:46.590Z,100866.78
2022-09-24T10:29:35.665Z,100876.28
2022-09-24T10:32:04.901Z,100884.44
2022-09-24T10:34:32.557Z,100881.16
2022-09-24T10:37:05.044Z,100883.75
2022-09-24T10:39:34.839Z,100881.56
2022-09-24T10:42:02.952Z,100876.97
2022-09-24T10:44:35.779Z,100880.22
2022-09-24T10:47:20.457Z,100883.03
2022-09-24T10:50:01.833Z,100881.78
2022-09-24T10:52:43.525Z,100889.69
2022-09-24T10:55:21.664Z,100882.03
2022-09-24T10:57:59.777Z,100890.53
2022-09-24T11:00:38.681Z,100883.22
2022-09-24T11:03:27.240Z,100885.97
2022-09-24T11:06:01.502Z,100885.88
2022-09-24T11:08:47.897Z,100890.00
2022-09-24T11:11:28.538Z,100884.19
2022-09-24T11:14:05.178Z,100886.44
2022-09-24T11:16:56.263Z,100883.75
2022-09-24T11:19:51.559Z,100879.44
2022-09-24T11:22:24.987Z,100879.25
2022-09-24T11:25:09.613Z,100879.75
2022-09-24T11:27:52.967Z,100861.97
2022-09-24T11:30:24.832Z,100862.25
2022-09-24T11:33:07.829Z,100856.81
2022-09-24T11:35:56.589Z,100849.53
2022-09-24T11:38:31.692Z,100854.63
2022-09-24T11:41:12.648Z,100851.84
2022-09-24T11:43:51.572Z,100852.69
2022-09-24T11:46:29.044Z,100855.69
2022-09-24T11:49:20.635Z,100852.22
2022-09-24T11:51:56.745Z,100855.16
2022-09-24T11:54:31.791Z,100863.97
2022-09-24T11:57:04.326Z,100862.84
2022-09-24T11:59:39.798Z,100864.16
2022-09-24T12:02:19.250Z,100861.78
2022-09-24T12:04:55.402Z,100861.91
2022-09-24T12:07:31.494Z,100861.88
2022-09-24T12:10:03.317Z,100861.28
2022-09-24T12:12:34.548Z,100866.72
2022-09-24T12:15:06.984Z,100861.38
2022-09-24T12:17:39.638Z,100861.19
2022-09-24T12:20:17.959Z,100858.34
2022-09-24T12:22:50.040Z,100853.31
2022-09-24T12:25:17.710Z,100865.06
2022-09-24T12:27:46.589Z,100867.69
2022-09-24T12:30:49.205Z,100851.94
2022-09-24T12:33:22.681Z,100853.28
2022-09-24T12:36:01.876Z,100848.91
2022-09-24T12:38:35.454Z,100850.13
2022-09-24T12:41:19.791Z,100859.47
2022-09-24T12:43:53.748Z,100859.59
2022-09-24T12:46:23.796Z,100846.47
2022-09-24T12:48:53.474Z,100852.22
2022-09-24T12:51:23.768Z,100864.94
2022-09-24T12:54:05.855Z,100861.31
2022-09-24T12:56:34.883Z,100852.59
2022-09-24T12:59:05.515Z,100850.78
2022-09-24T13:01:35.349Z,100846.22
2022-09-24T13:04:24.525Z,100853.38
2022-09-24T13:06:52.371Z,100853.78
2022-09-24T13:09:36.033Z,100846.41
2022-09-24T13:12:20.915Z,100846.56
2022-09-24T13:14:57.757Z,100845.56
2022-09-24T13:17:25.811Z,100846.13
2022-09-24T13:19:59.452Z,100842.28
2022-09-24T13:22:29.758Z,100848.34
2022-09-24T13:25:20.773Z,100839.13
2022-09-24T13:27:58.980Z,100841.53
2022-09-24T13:30:36.260Z,100845.75
2022-09-24T13:33:11.668Z,100849.06
2022-09-24T13:35:46.517Z,100841.63
2022-09-24T13:38:21.956Z,100844.75
2022-09-24T13:40:56.997Z,100842.16
2022-09-24T13:43:38.176Z,100846.41
2022-09-24T13:46:12.927Z,100835.97
2022-09-24T13:48:46.199Z,100838.47
2022-09-24T13:51:14.967Z,100833.22
2022-09-24T13:53:49.587Z,100840.16
2022-09-24T13:56:20.756Z,100828.66
2022-09-24T13:58:51.288Z,100828.34
2022-09-24T14:01:21.308Z,100835.22
2022-09-24T14:03:56.950Z,100827.13
2022-09-24T14:06:34.826Z,100829.03
2022-09-24T14:09:02.470Z,100823.00
2022-09-24T14:11:31.243Z,100825.31
2022-09-24T14:13:59.197Z,100825.88
2022-09-24T14:16:27.335Z,100830.91
2022-09-24T14:19:02.985Z,100825.59
2022-09-24T14:21:35.887Z,100821.44
2022-09-24T14:24:07.869Z,100824.59
2022-09-24T14:26:41.662Z,100837.53
2022-09-24T14:29:14.894Z,100815.78
2022-09-24T14:31:48.158Z,100826.34
2022-09-24T14:34:26.733Z,100828.75
2022-09-24T14:36:55.314Z,100816.91
2022-09-24T14:39:25.613Z,100826.03
2022-09-24T14:41:55.895Z,100819.22
2022-09-24T14:44:25.395Z,100824.72
2022-09-24T14:46:56.928Z,100839.81
2022-09-24T14:49:26.719Z,100835.94
2022-09-24T14:51:56.692Z,100831.41
2022-09-24T14:54:31.836Z,100828.28
2022-09-24T14:57:11.890Z,100831.84
2022-09-24T14:59:41.595Z,100834.72
2022-09-24T15:02:18.836Z,100839.22
2022-09-24T15:04:48.576Z,100825.06
2022-09-24T15:07:22.388Z,100822.34
2022-09-24T15:09:51.476Z,100832.03
2022-09-24T15:12:24.844Z,100823.72
2022-09-24T15:14:56.980Z,100833.13
2022-09-24T15:17:29.808Z,100835.41
2022-09-24T15:19:57.982Z,100836.59
2022-09-24T15:22:26.828Z,100828.19
2022-09-24T15:25:00.303Z,100832.69
2022-09-24T15:27:32.074Z,100829.53
2022-09-24T15:30:01.148Z,100837.09
2022-09-24T15:32:30.949Z,100836.72
2022-09-24T15:34:58.453Z,100825.41
2022-09-24T15:37:28.227Z,100825.75
2022-09-24T15:39:59.298Z,100816.97
2022-09-24T15:42:27.861Z,100824.28
2022-09-24T15:44:58.499Z,100824.88
2022-09-24T15:47:26.517Z,100827.34
2022-09-24T15:49:54.146Z,100823.81
2022-09-24T15:52:26.161Z,100823.00
2022-09-24T15:54:56.285Z,100829.97
2022-09-24T15:57:24.157Z,100830.94
2022-09-24T15:59:51.751Z,100832.59
2022-09-24T16:02:24.470Z,100825.72
2022-09-24T16:04:54.689Z,100827.28
2022-09-24T16:07:22.273Z,100839.75
2022-09-24T16:09:49.764Z,100837.19
2022-09-24T16:12:18.309Z,100834.34
2022-09-24T16:14:45.856Z,100840.84
2022-09-24T16:17:14.091Z,100838.50
2022-09-24T16:19:45.329Z,100836.78
2022-09-24T16:22:20.212Z,100838.81
2022-09-24T16:24:47.971Z,100840.88
2022-09-24T16:27:15.384Z,100839.28
2022-09-24T16:29:42.783Z,100843.81
2022-09-24T16:32:10.550Z,100836.41
2022-09-24T16:34:37.939Z,100846.53
2022-09-24T16:37:06.686Z,100843.22
2022-09-24T16:39:34.115Z,100841.66
2022-09-24T16:42:01.492Z,100846.66
2022-09-24T16:44:29.034Z,100850.59
2022-09-24T16:46:56.436Z,100848.94
2022-09-24T16:49:24.508Z,100858.19
2022-09-24T16:51:51.995Z,100852.56
2022-09-24T16:54:22.680Z,100858.78
2022-09-24T16:56:50.429Z,100855.22
2022-09-24T16:59:18.132Z,100858.38
2022-09-24T17:01:46.256Z,100857.81
2022-09-24T17:04:13.700Z,100851.63
2022-09-24T17:06:41.294Z,100858.47
2022-09-24T17:09:26.107Z,100858.53
2022-09-24T17:11:54.879Z,100862.34
2022-09-24T17:14:22.352Z,100867.25
2022-09-24T17:16:49.793Z,100874.00
2022-09-24T17:19:17.165Z,100868.53
2022-09-24T17:21:46.867Z,100868.50
2022-09-24T17:24:17.853Z,100866.56
2022-09-24T17:26:48.892Z,100870.31
2022-09-24T17:32:58.289Z,100866.31
2022-09-24T17:35:26.455Z,100870.19
2022-09-24T17:43:09.916Z,100883.56
2022-09-24T17:45:39.507Z,100875.50
2022-09-24T17:48:08.373Z,100877.88
2022-09-24T17:50:36.925Z,100876.78
2022-09-24T17:53:04.668Z,100875.50
2022-09-24T17:55:32.074Z,100882.09
2022-09-24T17:57:59.486Z,100876.56
2022-09-24T18:00:28.183Z,100881.81
2022-09-24T18:02:56.073Z,100886.16
2022-09-24T18:05:24.933Z,100886.41
2022-09-24T18:07:52.298Z,100893.13
2022-09-24T18:10:20.186Z,100891.06
2022-09-24T18:12:47.609Z,100892.66
2022-09-24T18:15:15.120Z,100885.41
2022-09-24T18:17:42.511Z,100884.16
2022-09-24T18:20:10.013Z,100894.34
2022-09-24T18:22:39.160Z,100894.03
2022-09-24T18:25:07.603Z,100901.59
2022-09-24T18:27:36.316Z,100904.31
2022-09-24T18:30:04.252Z,100901.66
2022-09-24T18:32:31.910Z,100896.97
2022-09-24T18:34:59.436Z,100886.94
2022-09-24T18:37:26.935Z,100899.88
2022-09-24T18:39:55.740Z,100893.44
2022-09-24T18:42:23.126Z,100892.63
2022-09-24T18:44:51.658Z,100890.09
2022-09-24T18:47:20.301Z,100898.25
2022-09-24T18:49:47.813Z,100888.59
2022-09-24T18:52:15.219Z,100892.84
2022-09-24T18:54:42.688Z,100893.56
2022-09-24T18:57:11.604Z,100905.94
2022-09-24T18:59:44.717Z,100905.53
2022-09-24T19:02:13.101Z,100910.59
2022-09-24T19:04:40.795Z,100910.06
2022-09-24T19:07:09.203Z,100909.38
2022-09-24T19:09:36.866Z,100909.16
2022-09-24T19:12:07.978Z,100909.50
2022-09-24T19:14:37.967Z,100904.84
2022-09-24T19:17:07.137Z,100901.22
2022-09-24T19:19:34.976Z,100904.19
2022-09-24T19:22:02.403Z,100901.94
2022-09-24T19:24:29.782Z,100905.75
2022-09-24T19:26:57.681Z,100903.31
2022-09-24T19:29:25.596Z,100905.16
2022-09-24T19:31:54.323Z,100903.63
2022-09-24T19:34:22.045Z,100907.03
2022-09-24T19:36:49.764Z,100906.47
2022-09-24T19:39:18.390Z,100905.91
2022-09-24T19:41:45.924Z,100905.81
2022-09-24T19:44:13.995Z,100906.69
2022-09-24T19:46:41.763Z,100900.50
2022-09-24T19:49:10.753Z,100900.59
2022-09-24T19:51:38.669Z,100905.06
2022-09-24T19:54:08.048Z,100893.56
2022-09-24T19:56:36.244Z,100898.03
2022-09-24T19:59:04.803Z,100895.13
2022-09-24T20:01:33.772Z,100904.50
2022-09-24T20:04:05.364Z,100899.22
2022-09-24T20:06:36.023Z,100899.94
2022-09-24T20:09:04.133Z,100895.47
2022-09-24T20:11:32.791Z,100896.16
2022-09-24T20:14:01.594Z,100905.72
2022-09-24T20:16:31.023Z,100902.97
2022-09-24T20:18:58.451Z,100905.84
2022-09-24T20:21:28.313Z,100907.53
2022-09-24T20:23:59.141Z,100903.19
2022-09-24T20:26:45.103Z,100907.47
2022-09-24T20:29:14.255Z,100901.22
2022-09-24T20:31:42.565Z,100901.56
2022-09-24T20:34:10.115Z,100903.78
2022-09-24T20:36:37.865Z,100898.78
2022-09-24T20:39:06.756Z,100894.38
2022-09-24T20:41:34.251Z,100899.00
2022-09-24T20:44:01.999Z,100896.97
2022-09-24T20:46:29.949Z,100896.44
2022-09-24T20:48:59.776Z,100892.16
2022-09-24T20:51:29.377Z,100895.25
2022-09-24T20:53:57.890Z,100897.94
2022-09-24T20:56:27.954Z,100899.63
2022-09-24T20:58:55.511Z,100896.41
2022-09-24T21:01:23.446Z,100896.22
2022-09-24T21:03:51.210Z,100900.63
2022-09-24T21:06:22.593Z,100891.22
2022-09-24T21:08:50.802Z,100897.25
2022-09-24T21:11:21.273Z,100892.63
2022-09-24T21:13:51.508Z,100893.75
2022-09-24T21:16:21.337Z,100892.09
2022-09-24T21:18:49.980Z,100887.75
2022-09-24T21:21:19.203Z,100888.50
2022-09-24T21:23:48.190Z,100891.91
2022-09-24T21:26:18.449Z,100892.53
2022-09-24T21:28:47.512Z,100895.50
2022-09-24T21:31:18.317Z,100890.00
2022-09-24T21:33:47.716Z,100896.44
2022-09-24T21:36:20.316Z,100897.19
2022-09-24T21:38:54.346Z,100896.44
2022-09-24T21:41:23.092Z,100893.19
2022-09-24T21:43:50.697Z,100887.78
2022-09-24T21:46:19.593Z,100882.41
2022-09-24T21:48:47.164Z,100890.34
2022-09-24T21:51:21.241Z,100903.63
2022-09-24T21:53:49.585Z,100885.34
2022-09-24T21:56:19.305Z,100884.34
2022-09-24T21:58:46.886Z,100883.44
2022-09-24T22:01:17.819Z,100883.47
2022-09-24T22:03:47.273Z,100886.19
2022-09-24T22:06:15.800Z,100879.31
2022-09-24T22:08:45.443Z,100891.59
2022-09-24T22:11:13.750Z,100892.41
2022-09-24T22:13:41.481Z,100887.16
2022-09-24T22:16:11.482Z,100881.00
2022-09-24T22:18:39.794Z,100886.34
2022-09-24T22:21:10.765Z,100871.53
2022-09-24T22:23:38.876Z,100881.94
2022-09-24T22:26:08.185Z,100884.56
2022-09-24T22:28:37.905Z,100877.56
2022-09-24T22:31:07.508Z,100880.28
2022-09-24T22:33:52.676Z,100870.53
2022-09-24T22:36:22.137Z,100866.16
2022-09-24T22:38:52.663Z,100869.69
2022-09-24T22:41:20.296Z,100867.94
2022-09-24T22:43:47.723Z,100860.16
2022-09-24T22:46:16.391Z,100864.34
2022-09-24T22:48:44.055Z,100861.69
2022-09-24T22:51:11.497Z,100864.09
2022-09-24T22:53:42.257Z,100868.56
2022-09-24T22:56:12.044Z,100868.56
2022-09-24T22:58:41.214Z,100860.91
2022-09-24T23:01:09.383Z,100863.69
2022-09-24T23:03:37.651Z,100862.81
2022-09-24T23:06:06.027Z,100862.81
2022-09-24T23:08:34.302Z,100872.50
2022-09-24T23:11:08.025Z,100857.44
2022-09-24T23:13:36.212Z,100862.03
2022-09-24T23:16:12.242Z,100855.09
2022-09-24T23:18:40.716Z,100862.09
2022-09-24T23:21:10.715Z,100866.53
2022-09-24T23:23:38.427Z,100862.13
2022-09-24T23:26:11.074Z,100853.31
2022-09-24T23:28:42.264Z,100860.19
2022-09-24T23:31:12.978Z,100855.13
2022-09-24T23:33:42.370Z,100852.19
2022-09-24T23:36:12.041Z,100864.69
2022-09-24T23:38:40.335Z,100862.16
2022-09-24T23:41:10.610Z,100857.75
2022-09-24T23:43:38.766Z,100851.63
2022-09-24T23:46:06.652Z,100851.72
2022-09-24T23:48:34.164Z,100850.72
2022-09-24T23:51:01.650Z,100848.06
2022-09-24T23:53:29.021Z,100851.56
2022-09-24T23:55:56.708Z,100850.56
2022-09-24T23:58:25.979Z,100844.56
